Regional Weather

 

KCRX - Corinth, Mississippi, USA
Distance from station: SW 29mi, 47km
Updated: Thu, 17-Jan-2019 9:35pm CST
Mist, Overcast
Mist, Overcast
 Wind from calm
Wind: Calm
Temperature: 52°F , 11°C
Dew Point: 52°F , 11°C
Humidity: 100%
Barometer: 30.09 inHg , 1019 hPa
Summary: Mist
Clouds: Overcast
Visibility: 4 miles , 6 km
Cloud details: Overcast 400 ft
2019/01/18 03:35 KCRX 180335Z AUTO 00000KT 4SM BR OVC004 11/11 A3009 RMK AO2
KMKL - Jackson, Tennessee, USA
Distance from station: NW 46mi, 73km
Updated: Thu, 17-Jan-2019 9:49pm CST
Mist, Overcast
Mist, Overcast
 Wind from N
Wind: N 8 mph , 13 km/h
Temperature: 46°F , 8°C
Wind Chill: 42°F , 6°C
Dew Point: 46°F , 8°C
Humidity: 100%
Barometer: 30.12 inHg , 1020 hPa
Summary: Mist
Clouds: Overcast
Visibility: 4 miles , 6 km
Cloud details: Overcast 700 ft
2019/01/18 03:49 KMKL 180349Z AUTO 35007KT 4SM BR OVC007 08/08 A3012 RMK AO2 CIG 003V011
 
KMSL - Muscle Shoal, Alabama, USA
Distance from station: SE 49mi, 79km
Updated: Thu, 17-Jan-2019 9:30pm CST
Overcast
Overcast
 Wind from SSW
Wind: SSW 3 mph , 6 km/h
Temperature: 52°F , 11°C
Dew Point: 48°F , 9°C
Humidity: 88%
Barometer: 30.12 inHg , 1020 hPa
Clouds: Overcast
Visibility: 7 miles , 11 km
Cloud details: Overcast 400 ft
2019/01/18 03:30 KMSL 180330Z AUTO 20003KT 7SM OVC004 11/09 A3012 RMK AO2 T01060094
KTUP - Tupelo, Mississippi, USA
Distance from station: SSW 72mi, 117km
Updated: Thu, 17-Jan-2019 9:16pm CST
Mist, Overcast
Mist, Overcast
 Wind from calm
Wind: Calm
Temperature: 52°F , 11°C
Dew Point: 52°F , 11°C
Humidity: 100%
Barometer: 30.11 inHg , 1019.6 hPa
Summary: Mist
Clouds: Overcast
Visibility: 3/4 mile , 1.2 km
Cloud details: Overcast 300 ft
2019/01/18 03:16 KTUP 180316Z 00000KT 3/4SM BR OVC003 11/11 A3011 RMK AO2 T01110106
 
KHSV - Huntsville, Alabama, USA
Distance from station: ESE 92mi, 148km
Updated: Thu, 17-Jan-2019 8:53pm CST
Mist, Overcast
Mist, Overcast
 Wind from S
Wind: S 3 mph , 6 km/h
Temperature: 48°F , 9°C
Dew Point: 48°F , 9°C
Humidity: 100%
Barometer: 30.10 inHg , 1019.3 hPa
Summary: Mist
Clouds: Overcast
Visibility: 4 miles , 6 km
Cloud details: Overcast 500 ft
2019/01/18 02:53 KHSV 180253Z 18003KT 4SM BR OVC005 09/09 A3010 RMK AO2 SLP193 T00890089 58001
KBNA - Nashville, TN, USA
Distance from station: NE 97mi, 157km
Updated: Thu, 17-Jan-2019 9:25pm CST
Light rain, Mist, Overcast
Light rain, Mist, Overcast
 Wind from SSW
Wind: SSW 5 mph , 7 km/h
Temperature: 48°F , 9°C
Wind Chill: 46°F , 8°C
Dew Point: 46°F , 8°C
Humidity: 94%
Barometer: 30.09 inHg , 1019 hPa
Summary: Light rain, Mist
Clouds: Overcast
Visibility: 2 1/2 miles , 4 km
Cloud details: Overcast 400 ft
2019/01/18 03:25 KBNA 180325Z 21004KT 2 1/2SM -RA BR OVC004 09/08 A3009 RMK AO2 TWR VIS 5 RAE04B25DZB07E25 P0001 T00890078
 
KMEM - Memphis, Tennessee, USA
Distance from station: W 99mi, 159km
Updated: Thu, 17-Jan-2019 9:44pm CST
Mist, Overcast
Mist, Overcast
 Wind from N
Wind: N 8 mph , 13 km/h
Temperature: 48°F , 9°C
Wind Chill: 44°F , 7°C
Dew Point: 48°F , 9°C
Humidity: 100%
Barometer: 30.12 inHg , 1020 hPa
Summary: Mist
Clouds: Overcast
Visibility: 4 miles , 6 km
Cloud details: Overcast 400 ft
2019/01/18 03:44 KMEM 180344Z 36007KT 4SM BR OVC004 09/09 A3012 RMK AO2 T00940094
KCKV - Clarksville, TN, USA
Distance from station: NNE 99mi, 159km
Updated: Thu, 17-Jan-2019 9:52pm CST
Overcast
Overcast
 Wind from NNW
Wind: NNW 9 mph , 15 km/h
Temperature: 46°F , 8°C
Wind Chill: 41°F , 5°C
Dew Point: 43°F , 6°C
Humidity: 87%
Barometer: 30.09 inHg , 1019 hPa
Clouds: Overcast
Visibility: 9 miles , 14 km
Cloud details: Mostly cloudy 800 ft
Mostly cloudy 1200 ft
Overcast 1800 ft
2019/01/18 03:52 KCKV 180352Z AUTO 33008KT 9SM BKN008 BKN012 OVC018 08/06 A3009 RMK AO2 CIG 005V010 SLP190 T00780061
 
KCHA - Chattanooga, TN, USA
Distance from station: E 165mi, 265km
Updated: Thu, 17-Jan-2019 8:53pm CST
Light drizzle, Mist, Overcast
Light drizzle, Mist, Overcast
 Wind from SSE
Wind: SSE 5 mph , 7 km/h
Temperature: 43°F , 6°C
Wind Chill: 40°F , 4°C
Dew Point: 41°F , 5°C
Humidity: 93%
Barometer: 30.13 inHg , 1020.3 hPa
Summary: Light drizzle, Mist
Clouds: Overcast
Visibility: 1 1/4 miles , 2 km
Cloud details: Overcast 400 ft
2019/01/18 02:53 KCHA 180253Z 16004KT 1 1/4SM -DZ BR OVC004 06/05 A3013 RMK AO2 SLP204 P0001 60001 T00610050 50002 $
KTYS - Knoxville, TN, USA
Distance from station: E 234mi, 377km
Updated: Thu, 17-Jan-2019 9:24pm CST
Light drizzle, Mist, Overcast
Light drizzle, Mist, Overcast
 Wind from W
Wind: W 8 mph , 13 km/h
Temperature: 43°F , 6°C
Wind Chill: 38°F , 3°C
Dew Point: 43°F , 6°C
Humidity: 100%
Barometer: 30.10 inHg , 1019.3 hPa
Summary: Light drizzle, Mist
Clouds: Overcast
Visibility: 2 1/2 miles , 4 km
Cloud details: Overcast 600 ft
2019/01/18 03:24 KTYS 180324Z 27007KT 2 1/2SM -DZ BR OVC006 06/06 A3010 RMK AO2 DZB13 CIG 004V008 P0000 T00610061 $

Refresh Page for latest data.